sensor_id;sensor_type;location;lat;lon;timestamp;P1;durP1;ratioP1;P2;durP2;ratioP2
55372;SDS011;41249;47.838;16.490;2022-10-16T00:01:06;30.63;;;17.05;;
55372;SDS011;41249;47.838;16.490;2022-10-16T00:03:34;29.27;;;17.60;;
55372;SDS011;41249;47.838;16.490;2022-10-16T00:06:01;18.88;;;14.07;;
55372;SDS011;41249;47.838;16.490;2022-10-16T00:08:28;21.13;;;12.85;;
55372;SDS011;41249;47.838;16.490;2022-10-16T00:10:59;26.98;;;18.52;;
55372;SDS011;41249;47.838;16.490;2022-10-16T00:13:30;32.00;;;20.75;;
55372;SDS011;41249;47.838;16.490;2022-10-16T00:15:58;26.02;;;17.30;;
55372;SDS011;41249;47.838;16.490;2022-10-16T00:18:26;24.40;;;16.27;;
55372;SDS011;41249;47.838;16.490;2022-10-16T00:20:53;24.73;;;16.58;;
55372;SDS011;41249;47.838;16.490;2022-10-16T00:23:21;31.25;;;17.60;;
55372;SDS011;41249;47.838;16.490;2022-10-16T00:25:54;32.85;;;19.02;;
55372;SDS011;41249;47.838;16.490;2022-10-16T00:28:23;25.05;;;17.50;;
55372;SDS011;41249;47.838;16.490;2022-10-16T00:30:49;23.48;;;17.63;;
55372;SDS011;41249;47.838;16.490;2022-10-16T00:33:16;26.02;;;16.08;;
55372;SDS011;41249;47.838;16.490;2022-10-16T00:35:42;27.27;;;16.98;;
55372;SDS011;41249;47.838;16.490;2022-10-16T00:38:09;24.58;;;15.63;;
55372;SDS011;41249;47.838;16.490;2022-10-16T00:40:36;20.98;;;14.43;;
55372;SDS011;41249;47.838;16.490;2022-10-16T00:43:08;21.00;;;14.27;;
55372;SDS011;41249;47.838;16.490;2022-10-16T00:45:38;19.35;;;12.75;;
55372;SDS011;41249;47.838;16.490;2022-10-16T00:48:06;22.13;;;13.25;;
55372;SDS011;41249;47.838;16.490;2022-10-16T00:50:39;21.63;;;14.57;;
55372;SDS011;41249;47.838;16.490;2022-10-16T00:53:09;18.50;;;12.98;;
55372;SDS011;41249;47.838;16.490;2022-10-16T00:55:37;25.33;;;16.80;;
55372;SDS011;41249;47.838;16.490;2022-10-16T00:58:07;26.48;;;16.25;;
55372;SDS011;41249;47.838;16.490;2022-10-16T01:00:34;22.70;;;14.40;;
55372;SDS011;41249;47.838;16.490;2022-10-16T01:03:02;22.35;;;15.73;;
55372;SDS011;41249;47.838;16.490;2022-10-16T01:05:33;19.60;;;14.02;;
55372;SDS011;41249;47.838;16.490;2022-10-16T01:08:19;20.67;;;14.02;;
55372;SDS011;41249;47.838;16.490;2022-10-16T01:13:33;21.60;;;14.23;;
55372;SDS011;41249;47.838;16.490;2022-10-16T01:16:09;22.40;;;13.13;;
55372;SDS011;41249;47.838;16.490;2022-10-16T01:18:58;21.88;;;14.27;;
55372;SDS011;41249;47.838;16.490;2022-10-16T01:21:50;18.88;;;13.50;;
55372;SDS011;41249;47.838;16.490;2022-10-16T01:24:31;16.67;;;12.35;;
55372;SDS011;41249;47.838;16.490;2022-10-16T01:32:28;18.08;;;12.88;;
55372;SDS011;41249;47.838;16.490;2022-10-16T01:34:59;20.67;;;11.25;;
55372;SDS011;41249;47.838;16.490;2022-10-16T01:37:40;17.80;;;11.63;;
55372;SDS011;41249;47.838;16.490;2022-10-16T01:40:15;24.88;;;15.55;;
55372;SDS011;41249;47.838;16.490;2022-10-16T01:42:50;19.65;;;15.00;;
55372;SDS011;41249;47.838;16.490;2022-10-16T01:45:21;19.50;;;12.00;;
55372;SDS011;41249;47.838;16.490;2022-10-16T01:47:48;22.55;;;12.93;;
55372;SDS011;41249;47.838;16.490;2022-10-16T01:50:18;20.17;;;13.18;;
55372;SDS011;41249;47.838;16.490;2022-10-16T01:52:48;17.67;;;11.20;;
55372;SDS011;41249;47.838;16.490;2022-10-16T01:55:19;16.83;;;12.45;;
55372;SDS011;41249;47.838;16.490;2022-10-16T01:57:51;19.92;;;12.40;;
55372;SDS011;41249;47.838;16.490;2022-10-16T02:00:20;18.02;;;12.70;;
55372;SDS011;41249;47.838;16.490;2022-10-16T02:02:49;22.02;;;14.30;;
55372;SDS011;41249;47.838;16.490;2022-10-16T02:05:30;26.52;;;14.15;;
55372;SDS011;41249;47.838;16.490;2022-10-16T02:08:00;38.17;;;20.42;;
55372;SDS011;41249;47.838;16.490;2022-10-16T02:10:30;53.67;;;19.88;;
55372;SDS011;41249;47.838;16.490;2022-10-16T02:13:03;80.63;;;21.23;;
55372;SDS011;41249;47.838;16.490;2022-10-16T02:15:36;48.15;;;19.33;;
55372;SDS011;41249;47.838;16.490;2022-10-16T02:18:04;41.65;;;18.02;;
55372;SDS011;41249;47.838;16.490;2022-10-16T02:20:33;35.40;;;17.85;;
55372;SDS011;41249;47.838;16.490;2022-10-16T02:23:10;27.88;;;17.17;;
55372;SDS011;41249;47.838;16.490;2022-10-16T02:25:41;26.80;;;15.27;;
55372;SDS011;41249;47.838;16.490;2022-10-16T02:28:17;32.75;;;18.65;;
55372;SDS011;41249;47.838;16.490;2022-10-16T02:30:56;28.80;;;15.15;;
55372;SDS011;41249;47.838;16.490;2022-10-16T02:33:26;31.33;;;18.40;;
55372;SDS011;41249;47.838;16.490;2022-10-16T02:35:55;27.25;;;15.43;;
55372;SDS011;41249;47.838;16.490;2022-10-16T02:38:23;25.55;;;16.13;;
55372;SDS011;41249;47.838;16.490;2022-10-16T02:40:52;25.08;;;14.65;;
55372;SDS011;41249;47.838;16.490;2022-10-16T02:43:18;26.40;;;15.23;;
55372;SDS011;41249;47.838;16.490;2022-10-16T02:45:45;28.45;;;18.30;;
55372;SDS011;41249;47.838;16.490;2022-10-16T02:48:12;27.83;;;17.48;;
55372;SDS011;41249;47.838;16.490;2022-10-16T02:50:38;32.63;;;16.80;;
55372;SDS011;41249;47.838;16.490;2022-10-16T02:53:05;24.73;;;15.05;;
55372;SDS011;41249;47.838;16.490;2022-10-16T02:55:31;26.67;;;14.85;;
55372;SDS011;41249;47.838;16.490;2022-10-16T02:57:58;25.67;;;14.70;;
55372;SDS011;41249;47.838;16.490;2022-10-16T03:00:25;28.30;;;17.55;;
55372;SDS011;41249;47.838;16.490;2022-10-16T03:02:51;27.15;;;15.05;;
55372;SDS011;41249;47.838;16.490;2022-10-16T03:05:18;22.92;;;15.32;;
55372;SDS011;41249;47.838;16.490;2022-10-16T03:07:45;30.35;;;17.63;;
55372;SDS011;41249;47.838;16.490;2022-10-16T03:10:11;28.92;;;16.60;;
55372;SDS011;41249;47.838;16.490;2022-10-16T03:12:38;25.58;;;14.40;;
55372;SDS011;41249;47.838;16.490;2022-10-16T03:15:04;21.95;;;13.32;;
55372;SDS011;41249;47.838;16.490;2022-10-16T03:17:32;22.20;;;13.00;;
55372;SDS011;41249;47.838;16.490;2022-10-16T03:19:59;27.08;;;14.48;;
55372;SDS011;41249;47.838;16.490;2022-10-16T03:22:26;23.80;;;16.15;;
55372;SDS011;41249;47.838;16.490;2022-10-16T03:24:52;30.88;;;16.23;;
55372;SDS011;41249;47.838;16.490;2022-10-16T03:27:19;28.05;;;17.08;;
55372;SDS011;41249;47.838;16.490;2022-10-16T03:29:45;20.85;;;12.10;;
55372;SDS011;41249;47.838;16.490;2022-10-16T03:32:12;19.20;;;11.90;;
55372;SDS011;41249;47.838;16.490;2022-10-16T03:34:38;19.33;;;12.27;;
55372;SDS011;41249;47.838;16.490;2022-10-16T03:37:05;19.83;;;12.88;;
55372;SDS011;41249;47.838;16.490;2022-10-16T03:39:31;18.00;;;11.02;;
55372;SDS011;41249;47.838;16.490;2022-10-16T03:41:58;35.15;;;13.23;;
55372;SDS011;41249;47.838;16.490;2022-10-16T03:44:25;16.58;;;10.98;;
55372;SDS011;41249;47.838;16.490;2022-10-16T03:46:51;24.63;;;10.90;;
55372;SDS011;41249;47.838;16.490;2022-10-16T03:49:18;125.80;;;11.25;;
55372;SDS011;41249;47.838;16.490;2022-10-16T03:51:45;97.28;;;11.55;;
55372;SDS011;41249;47.838;16.490;2022-10-16T03:54:12;30.52;;;10.30;;
55372;SDS011;41249;47.838;16.490;2022-10-16T03:56:38;50.92;;;9.75;;
55372;SDS011;41249;47.838;16.490;2022-10-16T03:59:05;81.05;;;10.63;;
55372;SDS011;41249;47.838;16.490;2022-10-16T04:01:31;28.77;;;9.10;;
55372;SDS011;41249;47.838;16.490;2022-10-16T04:03:58;54.83;;;11.27;;
55372;SDS011;41249;47.838;16.490;2022-10-16T04:06:25;134.55;;;14.40;;
55372;SDS011;41249;47.838;16.490;2022-10-16T04:08:51;27.58;;;11.73;;
55372;SDS011;41249;47.838;16.490;2022-10-16T04:11:18;78.53;;;11.38;;
55372;SDS011;41249;47.838;16.490;2022-10-16T04:13:44;30.33;;;10.25;;
55372;SDS011;41249;47.838;16.490;2022-10-16T04:16:11;38.35;;;12.23;;
55372;SDS011;41249;47.838;16.490;2022-10-16T04:18:37;59.60;;;13.27;;
55372;SDS011;41249;47.838;16.490;2022-10-16T04:21:04;52.05;;;13.48;;
55372;SDS011;41249;47.838;16.490;2022-10-16T04:23:32;32.22;;;12.45;;
55372;SDS011;41249;47.838;16.490;2022-10-16T04:25:59;25.23;;;12.60;;
55372;SDS011;41249;47.838;16.490;2022-10-16T04:28:27;17.83;;;11.07;;
55372;SDS011;41249;47.838;16.490;2022-10-16T04:30:54;27.20;;;12.93;;
55372;SDS011;41249;47.838;16.490;2022-10-16T04:33:20;53.88;;;14.23;;
55372;SDS011;41249;47.838;16.490;2022-10-16T04:35:47;48.40;;;14.38;;
55372;SDS011;41249;47.838;16.490;2022-10-16T04:38:14;47.95;;;15.05;;
55372;SDS011;41249;47.838;16.490;2022-10-16T04:40:41;36.55;;;13.68;;
55372;SDS011;41249;47.838;16.490;2022-10-16T04:43:08;27.33;;;13.45;;
55372;SDS011;41249;47.838;16.490;2022-10-16T04:45:35;47.22;;;16.58;;
55372;SDS011;41249;47.838;16.490;2022-10-16T04:48:02;24.17;;;13.65;;
55372;SDS011;41249;47.838;16.490;2022-10-16T04:50:28;40.83;;;15.07;;
55372;SDS011;41249;47.838;16.490;2022-10-16T04:52:55;36.85;;;15.23;;
55372;SDS011;41249;47.838;16.490;2022-10-16T04:55:21;41.75;;;17.70;;
55372;SDS011;41249;47.838;16.490;2022-10-16T04:57:48;26.17;;;16.15;;
55372;SDS011;41249;47.838;16.490;2022-10-16T05:00:15;51.63;;;14.27;;
55372;SDS011;41249;47.838;16.490;2022-10-16T05:02:42;36.17;;;15.57;;
55372;SDS011;41249;47.838;16.490;2022-10-16T05:05:08;43.33;;;16.23;;
55372;SDS011;41249;47.838;16.490;2022-10-16T05:07:35;74.03;;;16.75;;
55372;SDS011;41249;47.838;16.490;2022-10-16T05:10:02;68.78;;;18.38;;
55372;SDS011;41249;47.838;16.490;2022-10-16T05:12:28;54.53;;;16.00;;
55372;SDS011;41249;47.838;16.490;2022-10-16T05:14:55;43.58;;;17.15;;
55372;SDS011;41249;47.838;16.490;2022-10-16T05:17:25;38.35;;;14.15;;
55372;SDS011;41249;47.838;16.490;2022-10-16T05:19:53;58.42;;;17.75;;
55372;SDS011;41249;47.838;16.490;2022-10-16T05:22:20;70.05;;;17.10;;
55372;SDS011;41249;47.838;16.490;2022-10-16T05:24:46;53.55;;;17.58;;
55372;SDS011;41249;47.838;16.490;2022-10-16T05:27:13;56.05;;;17.38;;
55372;SDS011;41249;47.838;16.490;2022-10-16T05:29:45;54.10;;;16.90;;
55372;SDS011;41249;47.838;16.490;2022-10-16T05:32:13;49.08;;;17.02;;
55372;SDS011;41249;47.838;16.490;2022-10-16T05:34:41;105.22;;;18.75;;
55372;SDS011;41249;47.838;16.490;2022-10-16T05:37:08;52.92;;;16.60;;
55372;SDS011;41249;47.838;16.490;2022-10-16T05:39:35;71.68;;;16.88;;
55372;SDS011;41249;47.838;16.490;2022-10-16T05:42:03;59.75;;;15.75;;
55372;SDS011;41249;47.838;16.490;2022-10-16T05:44:30;103.40;;;17.75;;
55372;SDS011;41249;47.838;16.490;2022-10-16T05:46:57;68.28;;;17.30;;
55372;SDS011;41249;47.838;16.490;2022-10-16T05:49:23;118.30;;;18.08;;
55372;SDS011;41249;47.838;16.490;2022-10-16T05:51:50;118.95;;;19.15;;
55372;SDS011;41249;47.838;16.490;2022-10-16T05:54:17;139.48;;;20.55;;
55372;SDS011;41249;47.838;16.490;2022-10-16T05:56:43;173.75;;;20.88;;
55372;SDS011;41249;47.838;16.490;2022-10-16T05:59:10;120.80;;;19.77;;
55372;SDS011;41249;47.838;16.490;2022-10-16T06:01:36;137.95;;;22.25;;
55372;SDS011;41249;47.838;16.490;2022-10-16T06:04:03;187.43;;;21.88;;
55372;SDS011;41249;47.838;16.490;2022-10-16T06:06:29;61.83;;;15.52;;
55372;SDS011;41249;47.838;16.490;2022-10-16T06:08:57;155.05;;;22.45;;
55372;SDS011;41249;47.838;16.490;2022-10-16T06:11:25;104.45;;;18.58;;
55372;SDS011;41249;47.838;16.490;2022-10-16T06:13:55;88.40;;;20.67;;
55372;SDS011;41249;47.838;16.490;2022-10-16T06:16:24;184.38;;;21.60;;
55372;SDS011;41249;47.838;16.490;2022-10-16T06:18:52;136.63;;;23.83;;
55372;SDS011;41249;47.838;16.490;2022-10-16T06:21:22;72.00;;;20.95;;
55372;SDS011;41249;47.838;16.490;2022-10-16T06:23:53;72.63;;;21.15;;
55372;SDS011;41249;47.838;16.490;2022-10-16T06:26:21;80.30;;;22.40;;
55372;SDS011;41249;47.838;16.490;2022-10-16T06:28:50;67.30;;;18.58;;
55372;SDS011;41249;47.838;16.490;2022-10-16T06:31:17;74.82;;;21.33;;
55372;SDS011;41249;47.838;16.490;2022-10-16T06:33:43;67.28;;;20.55;;
55372;SDS011;41249;47.838;16.490;2022-10-16T06:36:13;89.90;;;22.92;;
55372;SDS011;41249;47.838;16.490;2022-10-16T06:38:41;60.95;;;18.95;;
55372;SDS011;41249;47.838;16.490;2022-10-16T06:41:09;46.28;;;18.17;;
55372;SDS011;41249;47.838;16.490;2022-10-16T06:43:38;77.35;;;21.40;;
55372;SDS011;41249;47.838;16.490;2022-10-16T06:46:06;39.05;;;19.02;;
55372;SDS011;41249;47.838;16.490;2022-10-16T06:48:35;50.53;;;20.85;;
55372;SDS011;41249;47.838;16.490;2022-10-16T06:51:11;79.50;;;20.92;;
55372;SDS011;41249;47.838;16.490;2022-10-16T06:53:44;64.55;;;21.58;;
55372;SDS011;41249;47.838;16.490;2022-10-16T06:56:28;52.83;;;19.58;;
55372;SDS011;41249;47.838;16.490;2022-10-16T06:58:57;34.88;;;14.55;;
55372;SDS011;41249;47.838;16.490;2022-10-16T07:01:24;57.33;;;19.35;;
55372;SDS011;41249;47.838;16.490;2022-10-16T07:03:52;30.98;;;18.98;;
55372;SDS011;41249;47.838;16.490;2022-10-16T07:06:19;63.10;;;20.98;;
55372;SDS011;41249;47.838;16.490;2022-10-16T07:08:47;60.88;;;19.98;;
55372;SDS011;41249;47.838;16.490;2022-10-16T07:11:18;37.65;;;19.45;;
55372;SDS011;41249;47.838;16.490;2022-10-16T07:13:47;74.50;;;21.33;;
55372;SDS011;41249;47.838;16.490;2022-10-16T07:16:21;75.22;;;22.55;;
55372;SDS011;41249;47.838;16.490;2022-10-16T07:18:53;28.75;;;14.18;;
55372;SDS011;41249;47.838;16.490;2022-10-16T07:21:25;27.58;;;16.70;;
55372;SDS011;41249;47.838;16.490;2022-10-16T07:23:55;33.15;;;19.80;;
55372;SDS011;41249;47.838;16.490;2022-10-16T07:26:24;34.08;;;19.48;;
55372;SDS011;41249;47.838;16.490;2022-10-16T07:28:52;46.83;;;20.63;;
55372;SDS011;41249;47.838;16.490;2022-10-16T07:31:19;33.58;;;16.38;;
55372;SDS011;41249;47.838;16.490;2022-10-16T07:33:47;49.40;;;18.67;;
55372;SDS011;41249;47.838;16.490;2022-10-16T07:36:15;48.25;;;22.00;;
55372;SDS011;41249;47.838;16.490;2022-10-16T07:38:42;33.83;;;19.92;;
55372;SDS011;41249;47.838;16.490;2022-10-16T07:41:13;46.20;;;19.52;;
55372;SDS011;41249;47.838;16.490;2022-10-16T07:43:48;58.83;;;18.90;;
55372;SDS011;41249;47.838;16.490;2022-10-16T07:46:17;113.45;;;21.63;;
55372;SDS011;41249;47.838;16.490;2022-10-16T07:48:45;99.47;;;16.92;;
55372;SDS011;41249;47.838;16.490;2022-10-16T07:51:17;136.88;;;22.33;;
55372;SDS011;41249;47.838;16.490;2022-10-16T07:53:45;115.97;;;22.40;;
55372;SDS011;41249;47.838;16.490;2022-10-16T07:56:13;105.22;;;22.10;;
55372;SDS011;41249;47.838;16.490;2022-10-16T07:58:40;38.08;;;19.25;;
55372;SDS011;41249;47.838;16.490;2022-10-16T08:01:08;46.60;;;20.50;;
55372;SDS011;41249;47.838;16.490;2022-10-16T08:03:36;79.07;;;22.27;;
55372;SDS011;41249;47.838;16.490;2022-10-16T08:06:04;37.40;;;16.80;;
55372;SDS011;41249;47.838;16.490;2022-10-16T08:08:31;96.60;;;25.40;;
55372;SDS011;41249;47.838;16.490;2022-10-16T08:10:57;67.75;;;23.17;;
55372;SDS011;41249;47.838;16.490;2022-10-16T08:13:24;64.18;;;21.90;;
55372;SDS011;41249;47.838;16.490;2022-10-16T08:15:51;47.28;;;16.73;;
55372;SDS011;41249;47.838;16.490;2022-10-16T08:18:17;39.30;;;17.33;;
55372;SDS011;41249;47.838;16.490;2022-10-16T08:20:43;60.78;;;22.30;;
55372;SDS011;41249;47.838;16.490;2022-10-16T08:23:13;39.42;;;18.55;;
55372;SDS011;41249;47.838;16.490;2022-10-16T08:25:40;88.10;;;24.30;;
55372;SDS011;41249;47.838;16.490;2022-10-16T08:28:08;55.50;;;23.98;;
55372;SDS011;41249;47.838;16.490;2022-10-16T08:30:36;34.15;;;20.33;;
55372;SDS011;41249;47.838;16.490;2022-10-16T08:33:03;35.72;;;19.98;;
55372;SDS011;41249;47.838;16.490;2022-10-16T08:35:30;42.58;;;21.48;;
55372;SDS011;41249;47.838;16.490;2022-10-16T08:37:57;42.90;;;22.75;;
55372;SDS011;41249;47.838;16.490;2022-10-16T08:40:24;51.22;;;25.60;;
55372;SDS011;41249;47.838;16.490;2022-10-16T08:45:37;39.42;;;25.42;;
55372;SDS011;41249;47.838;16.490;2022-10-16T08:48:10;33.38;;;19.52;;
55372;SDS011;41249;47.838;16.490;2022-10-16T08:50:41;36.80;;;24.20;;
55372;SDS011;41249;47.838;16.490;2022-10-16T08:53:10;35.33;;;22.65;;
55372;SDS011;41249;47.838;16.490;2022-10-16T08:55:51;33.67;;;21.90;;
55372;SDS011;41249;47.838;16.490;2022-10-16T08:58:20;33.25;;;20.88;;
55372;SDS011;41249;47.838;16.490;2022-10-16T09:00:48;30.77;;;18.52;;
55372;SDS011;41249;47.838;16.490;2022-10-16T09:03:24;43.20;;;27.52;;
55372;SDS011;41249;47.838;16.490;2022-10-16T09:08:37;32.45;;;19.58;;
55372;SDS011;41249;47.838;16.490;2022-10-16T09:22:48;27.50;;;19.77;;
55372;SDS011;41249;47.838;16.490;2022-10-16T09:25:20;37.00;;;21.05;;
55372;SDS011;41249;47.838;16.490;2022-10-16T09:27:48;36.70;;;23.92;;
55372;SDS011;41249;47.838;16.490;2022-10-16T09:30:19;37.17;;;24.40;;
55372;SDS011;41249;47.838;16.490;2022-10-16T09:32:48;33.45;;;21.00;;
55372;SDS011;41249;47.838;16.490;2022-10-16T09:35:21;28.10;;;18.02;;
55372;SDS011;41249;47.838;16.490;2022-10-16T09:37:54;33.95;;;20.77;;
55372;SDS011;41249;47.838;16.490;2022-10-16T09:40:25;35.67;;;22.88;;
55372;SDS011;41249;47.838;16.490;2022-10-16T09:46:07;45.70;;;27.65;;
55372;SDS011;41249;47.838;16.490;2022-10-16T09:48:44;29.13;;;19.48;;
55372;SDS011;41249;47.838;16.490;2022-10-16T09:51:31;31.80;;;21.85;;
55372;SDS011;41249;47.838;16.490;2022-10-16T09:54:11;31.75;;;21.90;;
55372;SDS011;41249;47.838;16.490;2022-10-16T09:56:47;31.67;;;21.08;;
55372;SDS011;41249;47.838;16.490;2022-10-16T09:59:19;38.03;;;22.88;;
55372;SDS011;41249;47.838;16.490;2022-10-16T10:01:48;30.20;;;20.85;;
55372;SDS011;41249;47.838;16.490;2022-10-16T10:04:16;30.48;;;22.50;;
55372;SDS011;41249;47.838;16.490;2022-10-16T10:06:47;30.42;;;21.98;;
55372;SDS011;41249;47.838;16.490;2022-10-16T10:11:47;38.25;;;25.10;;
55372;SDS011;41249;47.838;16.490;2022-10-16T10:16:46;43.00;;;28.17;;
55372;SDS011;41249;47.838;16.490;2022-10-16T10:19:18;36.65;;;25.10;;
55372;SDS011;41249;47.838;16.490;2022-10-16T10:21:49;40.60;;;26.00;;
55372;SDS011;41249;47.838;16.490;2022-10-16T10:24:18;36.55;;;24.75;;
55372;SDS011;41249;47.838;16.490;2022-10-16T10:26:51;38.28;;;26.52;;
55372;SDS011;41249;47.838;16.490;2022-10-16T10:29:46;34.80;;;23.92;;
55372;SDS011;41249;47.838;16.490;2022-10-16T10:33:02;35.10;;;23.88;;
55372;SDS011;41249;47.838;16.490;2022-10-16T10:35:57;39.03;;;25.10;;
55372;SDS011;41249;47.838;16.490;2022-10-16T10:38:38;36.78;;;23.05;;
55372;SDS011;41249;47.838;16.490;2022-10-16T10:41:20;36.63;;;24.00;;
55372;SDS011;41249;47.838;16.490;2022-10-16T10:44:10;36.15;;;23.40;;
55372;SDS011;41249;47.838;16.490;2022-10-16T11:06:06;30.77;;;20.52;;
55372;SDS011;41249;47.838;16.490;2022-10-16T11:08:41;29.50;;;22.65;;
55372;SDS011;41249;47.838;16.490;2022-10-16T11:11:32;31.00;;;22.65;;
55372;SDS011;41249;47.838;16.490;2022-10-16T11:14:26;32.85;;;22.80;;
55372;SDS011;41249;47.838;16.490;2022-10-16T11:20:05;29.35;;;21.50;;
55372;SDS011;41249;47.838;16.490;2022-10-16T11:22:43;32.40;;;22.20;;
55372;SDS011;41249;47.838;16.490;2022-10-16T11:25:21;30.08;;;22.30;;
55372;SDS011;41249;47.838;16.490;2022-10-16T11:28:10;30.65;;;22.17;;
55372;SDS011;41249;47.838;16.490;2022-10-16T11:30:51;29.70;;;21.95;;
55372;SDS011;41249;47.838;16.490;2022-10-16T11:33:26;28.05;;;21.35;;
55372;SDS011;41249;47.838;16.490;2022-10-16T11:41:24;24.83;;;18.73;;
55372;SDS011;41249;47.838;16.490;2022-10-16T11:44:05;27.08;;;20.02;;
55372;SDS011;41249;47.838;16.490;2022-10-16T11:53:11;25.00;;;18.27;;
55372;SDS011;41249;47.838;16.490;2022-10-16T11:55:45;26.10;;;19.58;;
55372;SDS011;41249;47.838;16.490;2022-10-16T12:01:00;26.92;;;20.17;;
55372;SDS011;41249;47.838;16.490;2022-10-16T12:03:43;27.33;;;21.17;;
55372;SDS011;41249;47.838;16.490;2022-10-16T12:09:02;24.25;;;18.85;;
55372;SDS011;41249;47.838;16.490;2022-10-16T12:16:38;23.90;;;18.70;;
55372;SDS011;41249;47.838;16.490;2022-10-16T12:19:16;25.45;;;20.13;;
55372;SDS011;41249;47.838;16.490;2022-10-16T12:21:44;23.00;;;18.70;;
55372;SDS011;41249;47.838;16.490;2022-10-16T12:27:29;24.23;;;17.63;;
55372;SDS011;41249;47.838;16.490;2022-10-16T12:29:59;23.48;;;16.95;;
55372;SDS011;41249;47.838;16.490;2022-10-16T12:35:27;27.33;;;19.63;;
55372;SDS011;41249;47.838;16.490;2022-10-16T12:38:12;24.38;;;17.90;;
55372;SDS011;41249;47.838;16.490;2022-10-16T12:40:43;20.85;;;16.13;;
55372;SDS011;41249;47.838;16.490;2022-10-16T12:45:59;23.85;;;16.85;;
55372;SDS011;41249;47.838;16.490;2022-10-16T12:48:52;19.80;;;16.25;;
55372;SDS011;41249;47.838;16.490;2022-10-16T12:51:35;21.63;;;14.65;;
55372;SDS011;41249;47.838;16.490;2022-10-16T13:02:17;19.90;;;15.05;;
55372;SDS011;41249;47.838;16.490;2022-10-16T13:05:29;16.42;;;13.57;;
55372;SDS011;41249;47.838;16.490;2022-10-16T13:08:32;23.27;;;14.80;;
55372;SDS011;41249;47.838;16.490;2022-10-16T13:11:20;21.50;;;14.98;;
55372;SDS011;41249;47.838;16.490;2022-10-16T13:17:01;18.38;;;13.98;;
55372;SDS011;41249;47.838;16.490;2022-10-16T13:19:36;19.48;;;13.85;;
55372;SDS011;41249;47.838;16.490;2022-10-16T13:24:55;16.48;;;12.77;;
55372;SDS011;41249;47.838;16.490;2022-10-16T13:27:41;16.92;;;13.60;;
55372;SDS011;41249;47.838;16.490;2022-10-16T13:30:17;19.38;;;14.23;;
55372;SDS011;41249;47.838;16.490;2022-10-16T13:35:34;17.17;;;14.05;;
55372;SDS011;41249;47.838;16.490;2022-10-16T13:38:11;21.77;;;14.60;;
55372;SDS011;41249;47.838;16.490;2022-10-16T13:43:24;20.10;;;14.20;;
55372;SDS011;41249;47.838;16.490;2022-10-16T13:45:53;18.88;;;14.27;;
55372;SDS011;41249;47.838;16.490;2022-10-16T13:48:24;18.15;;;13.23;;
55372;SDS011;41249;47.838;16.490;2022-10-16T13:51:11;18.58;;;13.80;;
55372;SDS011;41249;47.838;16.490;2022-10-16T13:53:39;17.23;;;13.20;;
55372;SDS011;41249;47.838;16.490;2022-10-16T13:56:17;15.52;;;12.63;;
55372;SDS011;41249;47.838;16.490;2022-10-16T13:58:45;18.17;;;13.00;;
55372;SDS011;41249;47.838;16.490;2022-10-16T14:01:17;16.95;;;14.18;;
55372;SDS011;41249;47.838;16.490;2022-10-16T14:06:15;16.90;;;12.77;;
55372;SDS011;41249;47.838;16.490;2022-10-16T14:08:44;15.93;;;13.02;;
55372;SDS011;41249;47.838;16.490;2022-10-16T14:11:20;19.40;;;13.40;;
55372;SDS011;41249;47.838;16.490;2022-10-16T14:13:50;16.02;;;11.90;;
55372;SDS011;41249;47.838;16.490;2022-10-16T14:16:21;19.02;;;13.02;;
55372;SDS011;41249;47.838;16.490;2022-10-16T14:18:58;14.63;;;11.48;;
55372;SDS011;41249;47.838;16.490;2022-10-16T14:21:28;19.08;;;12.70;;
55372;SDS011;41249;47.838;16.490;2022-10-16T14:23:55;19.83;;;14.35;;
55372;SDS011;41249;47.838;16.490;2022-10-16T14:26:23;19.95;;;13.52;;
55372;SDS011;41249;47.838;16.490;2022-10-16T14:29:04;17.63;;;13.13;;
55372;SDS011;41249;47.838;16.490;2022-10-16T14:31:40;15.40;;;12.55;;
55372;SDS011;41249;47.838;16.490;2022-10-16T14:34:53;15.93;;;13.25;;
55372;SDS011;41249;47.838;16.490;2022-10-16T14:37:00;15.57;;;12.38;;
55372;SDS011;41249;47.838;16.490;2022-10-16T14:39:35;14.25;;;11.73;;
55372;SDS011;41249;47.838;16.490;2022-10-16T14:42:02;15.13;;;12.95;;
55372;SDS011;41249;47.838;16.490;2022-10-16T14:44:30;16.35;;;12.32;;
55372;SDS011;41249;47.838;16.490;2022-10-16T14:47:06;16.77;;;12.50;;
55372;SDS011;41249;47.838;16.490;2022-10-16T14:49:35;15.48;;;12.90;;
55372;SDS011;41249;47.838;16.490;2022-10-16T14:52:04;20.27;;;11.73;;
55372;SDS011;41249;47.838;16.490;2022-10-16T14:54:34;15.00;;;11.65;;
55372;SDS011;41249;47.838;16.490;2022-10-16T14:57:01;18.42;;;12.93;;
55372;SDS011;41249;47.838;16.490;2022-10-16T14:59:39;18.45;;;11.68;;
55372;SDS011;41249;47.838;16.490;2022-10-16T15:02:25;15.05;;;10.82;;
55372;SDS011;41249;47.838;16.490;2022-10-16T15:04:55;16.02;;;10.43;;
55372;SDS011;41249;47.838;16.490;2022-10-16T15:07:22;14.82;;;10.50;;
55372;SDS011;41249;47.838;16.490;2022-10-16T15:09:49;13.90;;;11.00;;
55372;SDS011;41249;47.838;16.490;2022-10-16T15:12:16;15.88;;;10.85;;
55372;SDS011;41249;47.838;16.490;2022-10-16T15:14:43;15.98;;;12.40;;
55372;SDS011;41249;47.838;16.490;2022-10-16T15:17:10;14.15;;;10.93;;
55372;SDS011;41249;47.838;16.490;2022-10-16T15:19:37;15.98;;;11.50;;
55372;SDS011;41249;47.838;16.490;2022-10-16T15:22:04;16.63;;;11.23;;
55372;SDS011;41249;47.838;16.490;2022-10-16T15:24:31;16.85;;;11.90;;
55372;SDS011;41249;47.838;16.490;2022-10-16T15:26:57;18.20;;;11.45;;
55372;SDS011;41249;47.838;16.490;2022-10-16T15:29:24;14.73;;;11.57;;
55372;SDS011;41249;47.838;16.490;2022-10-16T15:31:51;17.20;;;12.63;;
55372;SDS011;41249;47.838;16.490;2022-10-16T15:34:17;17.58;;;12.27;;
55372;SDS011;41249;47.838;16.490;2022-10-16T15:36:45;18.40;;;11.30;;
55372;SDS011;41249;47.838;16.490;2022-10-16T15:39:13;14.88;;;11.98;;
55372;SDS011;41249;47.838;16.490;2022-10-16T15:41:42;15.85;;;11.77;;
55372;SDS011;41249;47.838;16.490;2022-10-16T15:44:10;13.05;;;10.43;;
55372;SDS011;41249;47.838;16.490;2022-10-16T15:46:37;17.52;;;11.98;;
55372;SDS011;41249;47.838;16.490;2022-10-16T15:49:04;17.60;;;12.75;;
55372;SDS011;41249;47.838;16.490;2022-10-16T15:51:30;16.15;;;12.18;;
55372;SDS011;41249;47.838;16.490;2022-10-16T15:53:59;19.50;;;12.32;;
55372;SDS011;41249;47.838;16.490;2022-10-16T15:56:28;18.60;;;12.98;;
55372;SDS011;41249;47.838;16.490;2022-10-16T15:58:55;18.05;;;13.48;;
55372;SDS011;41249;47.838;16.490;2022-10-16T16:01:23;22.33;;;13.00;;
55372;SDS011;41249;47.838;16.490;2022-10-16T16:03:52;17.83;;;13.90;;
55372;SDS011;41249;47.838;16.490;2022-10-16T16:06:19;15.93;;;12.35;;
55372;SDS011;41249;47.838;16.490;2022-10-16T16:08:46;19.17;;;13.38;;
55372;SDS011;41249;47.838;16.490;2022-10-16T16:11:15;17.75;;;13.40;;
55372;SDS011;41249;47.838;16.490;2022-10-16T16:13:44;18.08;;;14.13;;
55372;SDS011;41249;47.838;16.490;2022-10-16T16:16:12;17.75;;;13.27;;
55372;SDS011;41249;47.838;16.490;2022-10-16T16:18:42;17.63;;;13.38;;